Time;durP1;ratioP1;P1;durP2;ratioP2;P2;SDS_P1;SDS_P2;PMS_P1;PMS_P2;Temp;Humidity;BMP_temperature;BMP_pressure;BME280_temperature;BME280_humidity;BME280_pressure;Samples;Min_cycle;Max_cycle;Signal;HPM_P1;HPM_P2
2022/12/04 00:02:15;;;;;;;52.60;25.47;;;;;;;;;;5003218;28;20046;-61
2022/12/04 00:04:41;;;;;;;48.20;26.17;;;;;;;;;;5010143;28;20038;-62
2022/12/04 00:07:07;;;;;;;53.23;27.00;;;;;;;;;;5011136;28;20042;-62
2022/12/04 00:09:33;;;;;;;59.40;27.10;;;;;;;;;;5009348;28;20038;-62
2022/12/04 00:11:59;;;;;;;57.53;27.50;;;;;;;;;;5009183;28;20305;-62
2022/12/04 00:14:25;;;;;;;51.33;26.43;;;;;;;;;;5010599;28;20472;-62
2022/12/04 00:16:51;;;;;;;54.87;28.27;;;;;;;;;;5010027;28;20037;-61
2022/12/04 00:19:18;;;;;;;53.60;23.67;;;;;;;;;;5010704;28;20783;-61
2022/12/04 00:21:44;;;;;;;48.73;24.77;;;;;;;;;;5009278;28;20324;-61
2022/12/04 00:24:10;;;;;;;58.57;27.20;;;;;;;;;;5009763;28;20805;-62
2022/12/04 00:26:36;;;;;;;53.73;25.73;;;;;;;;;;4997403;28;20646;-62
2022/12/04 00:29:03;;;;;;;56.70;26.90;;;;;;;;;;4990578;28;20870;-62
2022/12/04 00:31:30;;;;;;;55.87;27.10;;;;;;;;;;4992800;28;20289;-62
2022/12/04 00:33:56;;;;;;;49.67;26.50;;;;;;;;;;5010199;28;20343;-61
2022/12/04 00:36:22;;;;;;;51.87;25.93;;;;;;;;;;5010364;28;20870;-62
2022/12/04 00:38:48;;;;;;;51.73;26.67;;;;;;;;;;5009778;28;20293;-62
2022/12/04 00:41:16;;;;;;;54.37;27.63;;;;;;;;;;5010335;28;20340;-62
2022/12/04 00:43:42;;;;;;;59.90;26.90;;;;;;;;;;5010115;28;20301;-61
2022/12/04 00:46:08;;;;;;;50.97;26.87;;;;;;;;;;5010213;28;20301;-61
2022/12/04 00:48:35;;;;;;;55.40;28.17;;;;;;;;;;5010050;28;20285;-62
2022/12/04 00:51:04;;;;;;;52.80;26.57;;;;;;;;;;5010097;28;20320;-62
2022/12/04 00:53:31;;;;;;;51.93;27.17;;;;;;;;;;5009597;28;20872;-62
2022/12/04 00:55:57;;;;;;;55.97;28.67;;;;;;;;;;5010250;28;20367;-62
2022/12/04 00:58:23;;;;;;;53.53;26.40;;;;;;;;;;5009770;28;20727;-62
2022/12/04 01:00:49;;;;;;;59.57;27.80;;;;;;;;;;5009900;28;20045;-62
2022/12/04 01:03:15;;;;;;;50.83;26.00;;;;;;;;;;5002880;28;20306;-61
2022/12/04 01:05:42;;;;;;;60.13;28.00;;;;;;;;;;4989404;28;20830;-61
2022/12/04 01:08:09;;;;;;;54.93;26.17;;;;;;;;;;4990234;28;20297;-61
2022/12/04 01:10:37;;;;;;;55.60;27.97;;;;;;;;;;4989915;28;20294;-61
2022/12/04 01:13:03;;;;;;;57.07;25.47;;;;;;;;;;4990885;28;20315;-61
2022/12/04 01:15:29;;;;;;;56.20;26.20;;;;;;;;;;5009470;28;20663;-62
2022/12/04 01:17:55;;;;;;;52.97;27.83;;;;;;;;;;5008935;28;20050;-61
2022/12/04 01:20:21;;;;;;;56.80;28.60;;;;;;;;;;5009557;28;20287;-61
2022/12/04 01:22:47;;;;;;;56.57;28.53;;;;;;;;;;5009158;28;20295;-61
2022/12/04 01:25:13;;;;;;;55.43;28.20;;;;;;;;;;5007260;28;20281;-61
2022/12/04 01:27:39;;;;;;;59.90;28.80;;;;;;;;;;4989673;28;20039;-61
2022/12/04 01:30:05;;;;;;;59.53;27.67;;;;;;;;;;4989586;28;20768;-62
2022/12/04 01:32:31;;;;;;;57.13;27.53;;;;;;;;;;4989458;28;20046;-61
2022/12/04 01:34:57;;;;;;;54.90;28.00;;;;;;;;;;4987712;28;20654;-62
2022/12/04 01:37:23;;;;;;;56.20;26.33;;;;;;;;;;4989549;28;20081;-62
2022/12/04 01:39:49;;;;;;;54.67;28.57;;;;;;;;;;4996247;28;20791;-61
2022/12/04 01:42:15;;;;;;;53.23;27.07;;;;;;;;;;5008589;28;20054;-61
2022/12/04 01:44:43;;;;;;;57.20;28.07;;;;;;;;;;5009323;28;20049;-62
2022/12/04 01:47:09;;;;;;;62.33;27.40;;;;;;;;;;5009147;28;20338;-61
2022/12/04 01:49:45;;;;;;;53.17;27.03;;;;;;;;;;5008991;28;20335;-61
2022/12/04 01:52:14;;;;;;;55.43;27.30;;;;;;;;;;5008847;28;20312;-62
2022/12/04 01:54:43;;;;;;;56.80;28.23;;;;;;;;;;5008686;28;20620;-62
2022/12/04 01:57:14;;;;;;;57.80;28.97;;;;;;;;;;4991153;28;20297;-61
2022/12/04 01:59:44;;;;;;;60.50;29.67;;;;;;;;;;4989521;28;20658;-62
2022/12/04 02:02:13;;;;;;;59.10;28.53;;;;;;;;;;4989345;28;20431;-60
2022/12/04 02:04:40;;;;;;;58.10;30.30;;;;;;;;;;4988831;28;20290;-61
2022/12/04 02:07:06;;;;;;;60.27;28.37;;;;;;;;;;4988090;28;20852;-60
2022/12/04 02:09:33;;;;;;;56.67;27.57;;;;;;;;;;4989036;28;20344;-61
2022/12/04 02:12:05;;;;;;;55.67;28.80;;;;;;;;;;4988865;28;20313;-60
2022/12/04 02:14:39;;;;;;;55.60;26.63;;;;;;;;;;5003364;28;20391;-60
2022/12/04 02:17:05;;;;;;;;;;;;;;;;;;5008086;28;20305;-61
2022/12/04 02:19:50;;;;;;;59.23;27.53;;;;;;;;;;5006709;28;19928;-60
2022/12/04 02:22:48;;;;;;;57.77;28.97;;;;;;;;;;5008269;28;20050;-60
2022/12/04 02:25:14;;;;;;;59.63;28.73;;;;;;;;;;4986120;28;20343;-61
2022/12/04 02:27:40;;;;;;;60.70;30.17;;;;;;;;;;5007957;28;20296;-60
2022/12/04 02:30:08;;;;;;;57.27;28.67;;;;;;;;;;4994796;28;20402;-60
2022/12/04 02:33:07;;;;;;;60.83;30.30;;;;;;;;;;4987734;28;20320;-60
2022/12/04 02:35:36;;;;;;;58.17;29.97;;;;;;;;;;4966192;28;20744;-61
2022/12/04 02:38:05;;;;;;;59.20;30.03;;;;;;;;;;4988665;28;20787;-61
2022/12/04 02:40:36;;;;;;;61.10;31.07;;;;;;;;;;4988867;28;20286;-60
2022/12/04 02:43:06;;;;;;;55.80;29.57;;;;;;;;;;4988791;28;20389;-62
2022/12/04 02:45:44;;;;;;;62.83;29.43;;;;;;;;;;4987268;28;20308;-60
2022/12/04 02:48:11;;;;;;;63.30;32.83;;;;;;;;;;4990576;28;20321;-60
2022/12/04 02:50:39;;;;;;;62.53;30.13;;;;;;;;;;4992576;28;20370;-61
2022/12/04 02:53:08;;;;;;;63.63;30.17;;;;;;;;;;4992663;28;20320;-61
2022/12/04 02:55:37;;;;;;;63.60;31.10;;;;;;;;;;4992333;28;20292;-60
2022/12/04 02:58:10;;;;;;;69.10;30.87;;;;;;;;;;4992139;28;20319;-60
2022/12/04 03:00:36;;;;;;;64.20;31.70;;;;;;;;;;4991033;28;20377;-60
2022/12/04 03:03:06;;;;;;;59.13;29.97;;;;;;;;;;4992554;28;20129;-60
2022/12/04 03:05:43;;;;;;;58.77;30.73;;;;;;;;;;4992137;28;20298;-61
2022/12/04 03:08:19;;;;;;;59.30;29.40;;;;;;;;;;4992545;28;20285;-60
2022/12/04 03:10:48;;;;;;;59.37;28.13;;;;;;;;;;4992147;28;20356;-61
2022/12/04 03:13:26;;;;;;;66.10;30.03;;;;;;;;;;4990907;28;20309;-61
2022/12/04 03:15:58;;;;;;;60.87;30.03;;;;;;;;;;4990989;28;20367;-60
2022/12/04 03:18:33;;;;;;;59.87;30.60;;;;;;;;;;4991621;28;20305;-61
2022/12/04 03:21:01;;;;;;;61.40;29.80;;;;;;;;;;4994803;28;20684;-60
2022/12/04 03:23:50;;;;;;;59.27;28.27;;;;;;;;;;4991464;28;20305;-61
2022/12/04 03:26:19;;;;;;;64.43;30.93;;;;;;;;;;4989267;28;20297;-60
2022/12/04 03:28:52;;;;;;;59.80;28.87;;;;;;;;;;4990295;28;20294;-60
2022/12/04 03:31:22;;;;;;;63.50;31.23;;;;;;;;;;4992058;28;20341;-60
2022/12/04 03:33:49;;;;;;;59.90;30.53;;;;;;;;;;4991770;28;20384;-60
2022/12/04 03:36:26;;;;;;;60.43;29.27;;;;;;;;;;4992095;28;20328;-60
2022/12/04 03:39:02;;;;;;;62.60;31.07;;;;;;;;;;4998280;28;20644;-60
2022/12/04 03:41:40;;;;;;;63.80;31.73;;;;;;;;;;5011246;28;20289;-61
2022/12/04 03:44:17;;;;;;;58.83;28.60;;;;;;;;;;5011749;28;20325;-60
2022/12/04 03:46:48;;;;;;;63.40;29.00;;;;;;;;;;4994083;28;20298;-61
2022/12/04 03:49:17;;;;;;;64.77;30.13;;;;;;;;;;4991478;28;21050;-61
2022/12/04 03:51:48;;;;;;;60.53;29.30;;;;;;;;;;4991284;28;20305;-60
2022/12/04 03:54:19;;;;;;;56.37;29.60;;;;;;;;;;4990506;28;20289;-61
2022/12/04 03:56:54;;;;;;;63.07;30.63;;;;;;;;;;4991287;28;20325;-61
2022/12/04 03:59:23;;;;;;;60.47;28.30;;;;;;;;;;5000339;28;20305;-61
2022/12/04 04:01:50;;;;;;;68.33;32.13;;;;;;;;;;5010658;28;20285;-60
2022/12/04 04:04:22;;;;;;;64.23;29.17;;;;;;;;;;5010900;28;20339;-60
2022/12/04 04:06:55;;;;;;;64.63;30.30;;;;;;;;;;5011050;28;20364;-61
2022/12/04 04:09:23;;;;;;;62.58;30.98;;;;;;;;;;5011056;28;20297;-61
2022/12/04 04:11:54;;;;;;;62.53;31.43;;;;;;;;;;5010448;28;20042;-60
2022/12/04 04:25:43;;;;;;;57.03;29.47;;;;;;;;;;4971202;28;21090;-61
2022/12/04 04:28:28;;;;;;;57.47;29.63;;;;;;;;;;4990724;28;20290;-61
2022/12/04 04:30:56;;;;;;;62.63;32.27;;;;;;;;;;4990524;28;20689;-61
2022/12/04 04:33:23;;;;;;;64.60;32.20;;;;;;;;;;4990960;28;20700;-61
2022/12/04 04:36:15;;;;;;;66.03;31.10;;;;;;;;;;4990065;28;20289;-60
2022/12/04 04:39:01;;;;;;;61.90;29.97;;;;;;;;;;4982396;28;20290;-61
2022/12/04 04:41:39;;;;;;;63.73;29.17;;;;;;;;;;4989001;28;20293;-60
2022/12/04 04:44:12;;;;;;;63.57;31.03;;;;;;;;;;4990873;28;20298;-61
2022/12/04 04:46:41;;;;;;;61.85;31.38;;;;;;;;;;5009559;28;20285;-61
2022/12/04 04:49:08;;;;;;;63.50;31.93;;;;;;;;;;5008555;28;20092;-61
2022/12/04 04:51:35;;;;;;;65.03;32.10;;;;;;;;;;5009723;28;20343;-61
2022/12/04 04:54:03;;;;;;;65.57;31.67;;;;;;;;;;4995537;28;20356;-60
2022/12/04 04:56:30;;;;;;;65.27;32.47;;;;;;;;;;4990012;28;20285;-61
2022/12/04 04:58:56;;;;;;;61.83;31.27;;;;;;;;;;4989734;28;20290;-61
2022/12/04 05:01:24;;;;;;;58.77;31.87;;;;;;;;;;4990082;28;20298;-61
2022/12/04 05:03:49;;;;;;;65.37;31.23;;;;;;;;;;4990269;28;20336;-61
2022/12/04 05:06:16;;;;;;;59.43;29.43;;;;;;;;;;4989909;28;20843;-60
2022/12/04 05:08:43;;;;;;;62.23;31.17;;;;;;;;;;4989388;28;20050;-60
2022/12/04 05:11:12;;;;;;;56.43;29.40;;;;;;;;;;4997059;28;20313;-61
2022/12/04 05:13:38;;;;;;;59.87;31.50;;;;;;;;;;5008394;28;20352;-60
2022/12/04 05:16:05;;;;;;;62.10;31.60;;;;;;;;;;5007961;28;20288;-61
2022/12/04 05:18:32;;;;;;;58.77;29.27;;;;;;;;;;5006759;28;20296;-60
2022/12/04 05:20:58;;;;;;;61.00;29.67;;;;;;;;;;4989382;28;20405;-61
2022/12/04 05:23:24;;;;;;;59.40;29.90;;;;;;;;;;4989782;28;20321;-61
2022/12/04 05:25:50;;;;;;;63.00;29.17;;;;;;;;;;4989533;28;20679;-60
2022/12/04 05:28:16;;;;;;;62.53;30.57;;;;;;;;;;4990033;28;20289;-61
2022/12/04 05:30:43;;;;;;;58.83;28.27;;;;;;;;;;4989188;28;20313;-61
2022/12/04 05:33:09;;;;;;;56.63;28.57;;;;;;;;;;4988474;28;20347;-61
2022/12/04 05:35:35;;;;;;;62.80;33.30;;;;;;;;;;4989803;28;20310;-61
2022/12/04 05:38:01;;;;;;;59.17;30.60;;;;;;;;;;4989793;28;20340;-60
2022/12/04 05:40:27;;;;;;;64.13;31.40;;;;;;;;;;4992249;28;20298;-61
2022/12/04 05:42:53;;;;;;;58.03;29.53;;;;;;;;;;4989631;28;20385;-60
2022/12/04 05:45:19;;;;;;;60.17;30.03;;;;;;;;;;4989441;28;20738;-61
2022/12/04 05:47:45;;;;;;;61.30;30.40;;;;;;;;;;4989499;28;20046;-61
2022/12/04 05:50:12;;;;;;;65.60;31.60;;;;;;;;;;4989480;28;20039;-61
2022/12/04 05:52:38;;;;;;;56.87;28.37;;;;;;;;;;4989059;28;20316;-61
2022/12/04 05:55:05;;;;;;;63.10;29.40;;;;;;;;;;4989384;28;20300;-60
2022/12/04 05:57:31;;;;;;;64.70;30.30;;;;;;;;;;4989423;28;20311;-61
2022/12/04 05:59:57;;;;;;;59.73;30.20;;;;;;;;;;4989625;28;20439;-61
2022/12/04 06:02:23;;;;;;;61.67;29.27;;;;;;;;;;4989240;28;20858;-61
2022/12/04 06:04:49;;;;;;;57.87;30.40;;;;;;;;;;4987713;28;20376;-61
2022/12/04 06:07:15;;;;;;;64.87;31.73;;;;;;;;;;4989620;28;20185;-61
2022/12/04 06:09:41;;;;;;;66.27;30.80;;;;;;;;;;4987485;28;20399;-60
2022/12/04 06:12:07;;;;;;;64.60;29.23;;;;;;;;;;4988808;28;20788;-60
2022/12/04 06:14:33;;;;;;;61.63;30.53;;;;;;;;;;4988942;28;20137;-61
2022/12/04 06:16:59;;;;;;;63.80;30.30;;;;;;;;;;4989240;28;20309;-60
2022/12/04 06:19:25;;;;;;;59.53;29.77;;;;;;;;;;4988862;28;20285;-60
2022/12/04 06:21:52;;;;;;;60.10;29.93;;;;;;;;;;4991371;28;20286;-61
2022/12/04 06:24:20;;;;;;;65.17;31.23;;;;;;;;;;4992448;28;20046;-61
2022/12/04 06:26:46;;;;;;;65.30;31.57;;;;;;;;;;4998490;28;20292;-63
2022/12/04 06:29:12;;;;;;;66.67;27.17;;;;;;;;;;4992855;28;20312;-61
2022/12/04 06:31:39;;;;;;;61.77;29.40;;;;;;;;;;5007600;28;20284;-62
2022/12/04 06:34:06;;;;;;;62.93;29.97;;;;;;;;;;5011750;28;20375;-62
2022/12/04 06:36:32;;;;;;;60.07;31.33;;;;;;;;;;4996688;28;20297;-62
2022/12/04 06:38:58;;;;;;;64.50;32.67;;;;;;;;;;4999591;28;20611;-62
2022/12/04 06:41:25;;;;;;;61.07;30.77;;;;;;;;;;5001561;28;20296;-63
2022/12/04 06:43:51;;;;;;;59.97;30.20;;;;;;;;;;5004204;28;20288;-62
2022/12/04 06:46:22;;;;;;;64.63;30.73;;;;;;;;;;5002425;28;20691;-61
2022/12/04 06:48:48;;;;;;;57.47;29.83;;;;;;;;;;5002807;28;20310;-62
2022/12/04 06:51:17;;;;;;;60.37;29.10;;;;;;;;;;5001121;28;20286;-62
2022/12/04 06:53:43;;;;;;;64.67;30.37;;;;;;;;;;5002389;28;21076;-61
2022/12/04 06:56:10;;;;;;;59.20;28.80;;;;;;;;;;5002885;28;20288;-61
2022/12/04 06:58:37;;;;;;;61.20;30.20;;;;;;;;;;5006646;28;20297;-62
2022/12/04 07:01:06;;;;;;;61.37;28.87;;;;;;;;;;5011813;28;20321;-61
2022/12/04 07:03:32;;;;;;;61.60;30.30;;;;;;;;;;5012336;28;20391;-62
2022/12/04 07:05:58;;;;;;;57.77;29.40;;;;;;;;;;5010626;28;20344;-61
2022/12/04 07:08:24;;;;;;;59.67;29.93;;;;;;;;;;5011781;28;20289;-62
2022/12/04 07:10:50;;;;;;;64.07;31.23;;;;;;;;;;5011742;28;20437;-62
2022/12/04 07:13:16;;;;;;;70.60;30.60;;;;;;;;;;5011748;28;20356;-61
2022/12/04 07:15:42;;;;;;;56.40;27.27;;;;;;;;;;5011877;28;20277;-61
2022/12/04 07:18:08;;;;;;;62.40;29.70;;;;;;;;;;5010339;28;20343;-62
2022/12/04 07:20:34;;;;;;;60.13;29.20;;;;;;;;;;5011944;28;20277;-62
2022/12/04 07:23:00;;;;;;;56.10;26.97;;;;;;;;;;5011821;28;20162;-62
2022/12/04 07:25:28;;;;;;;74.23;31.37;;;;;;;;;;5011335;28;21095;-61
2022/12/04 07:27:54;;;;;;;62.17;28.73;;;;;;;;;;5011752;28;20304;-62
2022/12/04 07:30:20;;;;;;;61.50;28.67;;;;;;;;;;5011916;28;20281;-62
2022/12/04 07:32:46;;;;;;;59.70;29.93;;;;;;;;;;5008813;28;20336;-62
2022/12/04 07:35:12;;;;;;;60.07;29.73;;;;;;;;;;5011401;28;20277;-62
2022/12/04 07:37:38;;;;;;;62.60;28.70;;;;;;;;;;4996159;28;20043;-62
2022/12/04 07:40:05;;;;;;;62.00;27.87;;;;;;;;;;4991531;28;20046;-62
2022/12/04 07:42:31;;;;;;;75.10;29.47;;;;;;;;;;4991913;28;20089;-61
2022/12/04 07:44:57;;;;;;;64.87;29.53;;;;;;;;;;4990676;28;20293;-62
2022/12/04 07:47:23;;;;;;;71.43;31.77;;;;;;;;;;4991302;28;20493;-61
2022/12/04 07:49:49;;;;;;;65.33;33.13;;;;;;;;;;4991770;28;20328;-62
2022/12/04 07:52:15;;;;;;;63.63;29.10;;;;;;;;;;4991727;28;20310;-61
2022/12/04 07:54:41;;;;;;;64.30;28.33;;;;;;;;;;4991711;28;20042;-61
2022/12/04 07:57:07;;;;;;;80.83;29.77;;;;;;;;;;4991532;28;21064;-62
2022/12/04 07:59:33;;;;;;;60.77;28.30;;;;;;;;;;4991755;28;20092;-61
2022/12/04 08:01:59;;;;;;;66.50;30.53;;;;;;;;;;4991607;28;20197;-61
2022/12/04 08:04:25;;;;;;;64.37;29.13;;;;;;;;;;4991521;28;20761;-61
2022/12/04 08:06:51;;;;;;;64.83;29.70;;;;;;;;;;4992168;28;20051;-61
2022/12/04 08:09:17;;;;;;;59.33;27.77;;;;;;;;;;4992152;28;20042;-62
2022/12/04 08:11:43;;;;;;;67.47;32.03;;;;;;;;;;4991344;28;20504;-62
2022/12/04 08:14:11;;;;;;;67.57;30.83;;;;;;;;;;4991642;28;20084;-62
2022/12/04 08:16:37;;;;;;;65.27;29.60;;;;;;;;;;4991273;28;20413;-61
2022/12/04 08:19:04;;;;;;;68.20;31.07;;;;;;;;;;4990805;28;20282;-62
2022/12/04 08:21:31;;;;;;;64.57;29.60;;;;;;;;;;4991421;28;20293;-62
2022/12/04 08:23:57;;;;;;;66.07;28.00;;;;;;;;;;4989691;28;20378;-61
2022/12/04 08:26:25;;;;;;;65.00;30.40;;;;;;;;;;4990914;28;20440;-62
2022/12/04 08:28:55;;;;;;;64.83;30.57;;;;;;;;;;4990840;28;20373;-62
2022/12/04 08:31:23;;;;;;;68.03;30.60;;;;;;;;;;4991141;28;20685;-68
2022/12/04 08:33:50;;;;;;;86.07;32.17;;;;;;;;;;4991429;28;20346;-64
2022/12/04 08:36:18;;;;;;;67.43;30.30;;;;;;;;;;4991789;28;20312;-63
2022/12/04 08:38:44;;;;;;;83.53;29.93;;;;;;;;;;4990901;28;20427;-61
2022/12/04 08:41:12;;;;;;;78.10;33.73;;;;;;;;;;4990496;28;20297;-62
2022/12/04 08:43:38;;;;;;;67.43;32.53;;;;;;;;;;4989832;28;20376;-62
2022/12/04 08:46:05;;;;;;;68.63;30.27;;;;;;;;;;4990229;28;20297;-62
2022/12/04 08:48:32;;;;;;;68.73;29.30;;;;;;;;;;4990455;28;20298;-63
2022/12/04 08:50:58;;;;;;;65.37;30.37;;;;;;;;;;4990682;28;20371;-62
2022/12/04 08:53:24;;;;;;;72.67;31.73;;;;;;;;;;4989139;28;20985;-62
2022/12/04 08:55:51;;;;;;;71.47;31.03;;;;;;;;;;4990001;28;20285;-62
2022/12/04 08:58:18;;;;;;;71.83;31.00;;;;;;;;;;4988833;28;20640;-62
2022/12/04 09:00:44;;;;;;;70.30;34.97;;;;;;;;;;4989997;28;20047;-62
2022/12/04 09:03:17;;;;;;;70.50;30.43;;;;;;;;;;4990284;28;20640;-63
2022/12/04 09:05:46;;;;;;;66.18;28.67;;;;;;;;;;4991094;28;20668;-62
2022/12/04 09:08:14;;;;;;;80.07;35.17;;;;;;;;;;5005487;28;20412;-62
2022/12/04 09:10:40;;;;;;;69.17;32.83;;;;;;;;;;5009308;28;20281;-62
2022/12/04 09:13:07;;;;;;;76.43;31.83;;;;;;;;;;5007631;28;20317;-62
2022/12/04 09:15:33;;;;;;;77.17;34.20;;;;;;;;;;5009288;28;20372;-62
2022/12/04 09:17:59;;;;;;;71.47;31.93;;;;;;;;;;5009122;28;20356;-62
2022/12/04 09:20:25;;;;;;;77.53;33.30;;;;;;;;;;4996760;28;20046;-62
2022/12/04 09:22:51;;;;;;;75.80;34.23;;;;;;;;;;5005011;28;20288;-62
2022/12/04 09:25:17;;;;;;;84.23;34.60;;;;;;;;;;5002162;28;20676;-62
2022/12/04 09:27:44;;;;;;;82.33;35.43;;;;;;;;;;5000618;28;20045;-62
2022/12/04 09:30:11;;;;;;;77.10;33.70;;;;;;;;;;4999633;28;20132;-62
2022/12/04 09:32:37;;;;;;;74.33;32.57;;;;;;;;;;5008578;28;20327;-63
2022/12/04 09:35:04;;;;;;;79.43;35.90;;;;;;;;;;5005429;28;20716;-62
2022/12/04 09:37:30;;;;;;;81.20;35.53;;;;;;;;;;4989668;28;20281;-62
2022/12/04 09:39:56;;;;;;;81.27;34.23;;;;;;;;;;4989382;28;20301;-62
2022/12/04 09:42:22;;;;;;;82.10;35.40;;;;;;;;;;4989690;28;20042;-62
2022/12/04 09:44:59;;;;;;;75.07;33.40;;;;;;;;;;4987768;28;20420;-61
2022/12/04 09:47:28;;;;;;;81.60;35.50;;;;;;;;;;4989768;28;20114;-62
2022/12/04 09:50:06;;;;;;;81.90;36.97;;;;;;;;;;4995617;28;20316;-62
2022/12/04 09:52:39;;;;;;;80.37;36.17;;;;;;;;;;4991400;28;20320;-61
2022/12/04 09:55:11;;;;;;;83.13;36.13;;;;;;;;;;4990941;28;20409;-62
2022/12/04 09:57:42;;;;;;;76.83;33.50;;;;;;;;;;5008272;28;20095;-61
2022/12/04 10:00:12;;;;;;;73.27;32.23;;;;;;;;;;5009059;28;20292;-62
2022/12/04 10:02:39;;;;;;;72.13;34.13;;;;;;;;;;5008634;28;20794;-62
2022/12/04 10:05:06;;;;;;;77.30;34.23;;;;;;;;;;4990840;28;20293;-61
2022/12/04 10:07:39;;;;;;;79.87;34.83;;;;;;;;;;4988839;28;20039;-62
2022/12/04 10:10:12;;;;;;;81.80;34.53;;;;;;;;;;4989175;28;20416;-62
2022/12/04 10:12:38;;;;;;;76.07;31.75;;;;;;;;;;4988990;28;20054;-62
2022/12/04 10:15:15;;;;;;;72.03;33.23;;;;;;;;;;4994387;28;20338;-62
2022/12/04 10:17:41;;;;;;;77.57;33.37;;;;;;;;;;5000069;28;20052;-62
2022/12/04 10:20:19;;;;;;;113.07;36.00;;;;;;;;;;5005892;28;20281;-62
2022/12/04 10:22:55;;;;;;;74.17;33.50;;;;;;;;;;5008495;28;20132;-62
2022/12/04 10:25:22;;;;;;;71.30;33.33;;;;;;;;;;5006968;28;20507;-62
2022/12/04 10:27:51;;;;;;;68.73;30.83;;;;;;;;;;5008505;28;20288;-62
2022/12/04 10:30:21;;;;;;;69.53;31.90;;;;;;;;;;5008428;28;20045;-63
2022/12/04 10:32:47;;;;;;;80.97;32.57;;;;;;;;;;4999559;28;20082;-62
2022/12/04 10:35:19;;;;;;;77.70;33.83;;;;;;;;;;4989736;28;20301;-62
2022/12/04 10:37:48;;;;;;;68.97;31.50;;;;;;;;;;4988976;28;20296;-62
2022/12/04 10:40:20;;;;;;;70.47;34.13;;;;;;;;;;4999295;28;20504;-62
2022/12/04 10:42:46;;;;;;;66.93;33.20;;;;;;;;;;5008524;28;20301;-63
2022/12/04 10:45:12;;;;;;;59.83;28.03;;;;;;;;;;5008087;28;20826;-62
2022/12/04 10:47:42;;;;;;;69.93;32.27;;;;;;;;;;5008548;28;20042;-61
2022/12/04 10:50:17;;;;;;;67.37;32.70;;;;;;;;;;5007525;28;20140;-62
2022/12/04 10:52:43;;;;;;;72.90;33.40;;;;;;;;;;4996231;28;20066;-61
2022/12/04 10:55:09;;;;;;;67.70;32.63;;;;;;;;;;4993531;28;20085;-63
2022/12/04 10:57:38;;;;;;;66.73;33.13;;;;;;;;;;5007819;28;20699;-62
2022/12/04 11:00:23;;;;;;;63.77;31.37;;;;;;;;;;5003733;28;21016;-62
2022/12/04 11:02:49;;;;;;;66.87;30.87;;;;;;;;;;5003501;28;20731;-63
2022/12/04 11:05:26;;;;;;;58.90;30.90;;;;;;;;;;5007749;28;20312;-63
2022/12/04 11:07:53;;;;;;;60.97;29.97;;;;;;;;;;5009900;28;20285;-60
2022/12/04 11:10:19;;;;;;;60.43;30.00;;;;;;;;;;5009015;28;20288;-60
2022/12/04 11:12:55;;;;;;;58.40;28.90;;;;;;;;;;5011252;28;20045;-62
2022/12/04 11:15:21;;;;;;;49.67;24.50;;;;;;;;;;5012064;28;20434;-62
2022/12/04 11:17:47;;;;;;;56.57;29.27;;;;;;;;;;5019644;28;20046;-62
2022/12/04 11:20:16;;;;;;;53.37;28.03;;;;;;;;;;4996218;28;20129;-62
2022/12/04 11:23:00;;;;;;;52.90;28.77;;;;;;;;;;5009798;28;20128;-63
2022/12/04 11:25:26;;;;;;;;;;;;;;;;;;4997706;28;20524;-62
2022/12/04 11:27:54;;;;;;;58.30;28.40;;;;;;;;;;5003741;28;19925;-61
2022/12/04 11:30:23;;;;;;;51.73;26.83;;;;;;;;;;5011009;28;20478;-62
2022/12/04 11:32:49;;;;;;;50.73;27.77;;;;;;;;;;5011363;28;20417;-62
2022/12/04 11:35:17;;;;;;;48.07;22.93;;;;;;;;;;5011341;28;20122;-62
2022/12/04 11:37:51;;;;;;;47.50;24.43;;;;;;;;;;5011151;28;20108;-61
2022/12/04 11:40:18;;;;;;;45.93;24.90;;;;;;;;;;5010996;28;20049;-62
2022/12/04 11:42:44;;;;;;;47.33;24.77;;;;;;;;;;5003669;28;20107;-61
2022/12/04 11:45:21;;;;;;;47.20;26.00;;;;;;;;;;4991696;28;20042;-62
2022/12/04 11:47:54;;;;;;;47.07;24.93;;;;;;;;;;4991471;28;20133;-62
2022/12/04 11:50:39;;;;;;;42.20;25.15;;;;;;;;;;4993968;28;20519;-62
2022/12/04 11:53:11;;;;;;;44.77;23.30;;;;;;;;;;5011006;28;20137;-61
2022/12/04 11:55:37;;;;;;;45.00;23.03;;;;;;;;;;5002906;28;20054;-62
2022/12/04 11:58:22;;;;;;;41.47;23.03;;;;;;;;;;4997463;28;20042;-62
2022/12/04 12:01:09;;;;;;;39.00;21.00;;;;;;;;;;5003139;28;20086;-61
2022/12/04 12:03:48;;;;;;;40.30;22.07;;;;;;;;;;4980341;28;20061;-62
2022/12/04 12:06:23;;;;;;;41.47;21.83;;;;;;;;;;4991205;28;20043;-62
2022/12/04 12:09:00;;;;;;;40.10;20.97;;;;;;;;;;4991118;28;20417;-62
2022/12/04 12:11:32;;;;;;;36.03;20.27;;;;;;;;;;5004082;28;20038;-61
2022/12/04 12:13:58;;;;;;;37.13;20.00;;;;;;;;;;4993642;28;20052;-61
2022/12/04 12:16:43;;;;;;;39.90;20.03;;;;;;;;;;5000238;28;20050;-62
2022/12/04 12:19:18;;;;;;;37.37;20.07;;;;;;;;;;5000239;28;20096;-62
2022/12/04 12:21:47;;;;;;;34.10;20.17;;;;;;;;;;4990909;28;20102;-62
2022/12/04 12:24:29;;;;;;;36.00;19.37;;;;;;;;;;4990948;28;20408;-61
2022/12/04 12:26:57;;;;;;;30.77;16.67;;;;;;;;;;5002978;28;20086;-62
2022/12/04 12:29:37;;;;;;;33.70;19.17;;;;;;;;;;4997302;28;20052;-62
2022/12/04 12:32:12;;;;;;;28.33;16.60;;;;;;;;;;5010252;28;20908;-61
2022/12/04 12:34:39;;;;;;;29.23;14.37;;;;;;;;;;4992229;28;20038;-62
2022/12/04 12:37:18;;;;;;;29.83;18.00;;;;;;;;;;4990315;28;20054;-62
2022/12/04 12:39:47;;;;;;;31.07;17.77;;;;;;;;;;4990354;28;20112;-62
2022/12/04 12:42:25;;;;;;;30.13;16.20;;;;;;;;;;4990469;28;20070;-61
2022/12/04 12:45:04;;;;;;;32.03;17.97;;;;;;;;;;4990457;28;20054;-62
2022/12/04 12:47:34;;;;;;;26.57;13.43;;;;;;;;;;4998877;28;20058;-62
2022/12/04 12:50:00;;;;;;;32.27;16.77;;;;;;;;;;4991555;28;20046;-62
2022/12/04 12:52:32;;;;;;;32.70;15.53;;;;;;;;;;5006560;28;20046;-62
2022/12/04 12:55:02;;;;;;;26.37;14.47;;;;;;;;;;5004708;28;20060;-62
2022/12/04 12:57:34;;;;;;;26.40;14.63;;;;;;;;;;4994576;28;20057;-62
2022/12/04 13:00:04;;;;;;;28.03;15.63;;;;;;;;;;4990240;28;20111;-61
2022/12/04 13:02:38;;;;;;;29.50;15.87;;;;;;;;;;4987981;28;20862;-61
2022/12/04 13:05:05;;;;;;;28.60;14.60;;;;;;;;;;4989651;28;20046;-62
2022/12/04 13:07:51;;;;;;;30.13;16.33;;;;;;;;;;4988142;28;20054;-62
2022/12/04 13:10:21;;;;;;;28.03;15.47;;;;;;;;;;4988129;28;20050;-62
2022/12/04 13:13:05;;;;;;;28.13;16.97;;;;;;;;;;4987338;28;20046;-62
2022/12/04 13:15:38;;;;;;;31.13;16.07;;;;;;;;;;4987794;28;20077;-62
2022/12/04 13:18:06;;;;;;;27.60;16.93;;;;;;;;;;4987577;28;20042;-61
2022/12/04 13:20:36;;;;;;;32.13;17.70;;;;;;;;;;4987372;28;20062;-62
2022/12/04 13:23:12;;;;;;;30.20;15.63;;;;;;;;;;4989007;28;20042;-62
2022/12/04 13:25:51;;;;;;;29.07;15.30;;;;;;;;;;4989129;28;20644;-61
2022/12/04 13:28:36;;;;;;;28.83;15.87;;;;;;;;;;4988858;28;20529;-62
2022/12/04 13:31:03;;;;;;;29.07;16.43;;;;;;;;;;4989129;28;20055;-62
2022/12/04 13:33:32;;;;;;;29.43;16.30;;;;;;;;;;4989092;28;20089;-62
2022/12/04 13:36:04;;;;;;;28.70;14.87;;;;;;;;;;4989373;28;20045;-62
2022/12/04 13:38:30;;;;;;;28.53;15.93;;;;;;;;;;4988872;28;20046;-62
2022/12/04 13:40:59;;;;;;;33.43;19.23;;;;;;;;;;4988573;28;20486;-62
2022/12/04 13:43:28;;;;;;;30.97;16.77;;;;;;;;;;4991015;28;20052;-62
2022/12/04 13:45:55;;;;;;;33.90;17.90;;;;;;;;;;4988861;28;20520;-62
2022/12/04 13:48:28;;;;;;;34.63;18.57;;;;;;;;;;4988135;28;20046;-62
2022/12/04 13:51:01;;;;;;;29.87;16.27;;;;;;;;;;4989211;28;20056;-61
2022/12/04 13:53:31;;;;;;;32.88;18.08;;;;;;;;;;4989317;28;20505;-62
2022/12/04 13:55:58;;;;;;;31.80;17.47;;;;;;;;;;4989705;28;20050;-62
2022/12/04 13:58:32;;;;;;;30.93;16.27;;;;;;;;;;5000890;28;20042;-62
2022/12/04 14:01:02;;;;;;;31.52;18.75;;;;;;;;;;5024139;28;20103;-62
2022/12/04 14:03:39;;;;;;;32.33;18.50;;;;;;;;;;5004241;28;20088;-62
2022/12/04 14:06:20;;;;;;;29.97;16.03;;;;;;;;;;4989189;28;20109;-62
2022/12/04 14:08:46;;;;;;;30.70;18.83;;;;;;;;;;4991258;28;20050;-62
2022/12/04 14:11:13;;;;;;;31.70;16.97;;;;;;;;;;5008914;28;20523;-62
2022/12/04 14:13:50;;;;;;;31.33;16.37;;;;;;;;;;5008891;28;20048;-62
2022/12/04 14:16:38;;;;;;;31.97;17.53;;;;;;;;;;5002992;28;20401;-62
2022/12/04 14:19:04;;;;;;;29.83;15.73;;;;;;;;;;4988835;28;20512;-62
2022/12/04 14:21:49;;;;;;;31.83;16.40;;;;;;;;;;4989132;28;20038;-61
2022/12/04 14:24:35;;;;;;;28.23;14.70;;;;;;;;;;4989234;28;20054;-62
2022/12/04 14:27:22;;;;;;;31.03;17.07;;;;;;;;;;5001813;28;20053;-61
2022/12/04 14:29:50;;;;;;;30.53;16.73;;;;;;;;;;5001229;28;20141;-63
2022/12/04 14:32:21;;;;;;;26.90;15.93;;;;;;;;;;5007481;28;20519;-61
2022/12/04 14:34:47;;;;;;;30.40;16.50;;;;;;;;;;4988913;28;20077;-61
2022/12/04 14:37:23;;;;;;;30.87;16.23;;;;;;;;;;4989265;28;20069;-62
2022/12/04 14:39:49;;;;;;;33.17;18.37;;;;;;;;;;4989387;28;20521;-61
2022/12/04 14:42:36;;;;;;;36.53;19.07;;;;;;;;;;4990606;28;20129;-63
2022/12/04 14:45:04;;;;;;;29.90;17.27;;;;;;;;;;5008263;28;20557;-63